Time;durP1;ratioP1;P1;durP2;ratioP2;P2;SDS_P1;SDS_P2;PMS_P1;PMS_P2;Temp;Humidity;BMP_temperature;BMP_pressure;BME280_temperature;BME280_humidity;BME280_pressure;Samples;Min_cycle;Max_cycle;Signal;HPM_P1;HPM_P2
2022/12/14 00:01:52;;;;;;;19.87;8.10;;;;;;;1.93;57.00;99446.91;5147381;27;20668;-64
2022/12/14 00:04:20;;;;;;;23.63;7.97;;;;;;;1.94;57.00;99453.78;5145835;27;20261;-64
2022/12/14 00:06:48;;;;;;;16.40;8.23;;;;;;;2.04;56.58;99450.34;5145332;27;20236;-64
2022/12/14 00:09:15;;;;;;;17.73;8.30;;;;;;;2.08;56.69;99443.94;5136796;27;20201;-64
2022/12/14 00:11:43;;;;;;;15.03;7.60;;;;;;;2.07;56.48;99444.03;5144922;27;20221;-64
2022/12/14 00:14:12;;;;;;;16.07;7.73;;;;;;;2.11;56.38;99445.47;5140576;27;20209;-64
2022/12/14 00:16:40;;;;;;;17.97;8.10;;;;;;;2.15;56.29;99432.03;5140547;27;20292;-64
2022/12/14 00:19:10;;;;;;;15.33;7.20;;;;;;;2.16;56.16;99432.88;5140907;27;20217;-64
2022/12/14 00:21:38;;;;;;;15.43;6.93;;;;;;;2.18;56.24;99415.28;5147322;27;20650;-64
2022/12/14 00:24:06;;;;;;;19.80;8.50;;;;;;;2.27;56.10;99414.56;5144272;27;20219;-64
2022/12/14 00:26:33;;;;;;;18.83;8.27;;;;;;;2.32;55.91;99399.31;5146903;27;20224;-64
2022/12/14 00:29:02;;;;;;;20.33;8.03;;;;;;;2.43;55.73;99395.84;5143556;27;20244;-64
2022/12/14 00:31:31;;;;;;;17.83;8.17;;;;;;;2.41;55.61;99393.34;5148130;27;20201;-67
2022/12/14 00:33:59;;;;;;;20.97;8.77;;;;;;;2.32;56.05;99390.63;5146193;27;20201;-64
2022/12/14 00:36:30;;;;;;;17.40;7.80;;;;;;;2.33;56.31;99390.50;5146042;27;20201;-64
2022/12/14 00:38:58;;;;;;;15.53;7.40;;;;;;;2.28;56.50;99384.84;5142467;27;20289;-65
2022/12/14 00:41:25;;;;;;;19.23;8.30;;;;;;;2.30;56.31;99385.53;5144842;27;20296;-64
2022/12/14 00:43:53;;;;;;;18.27;8.17;;;;;;;2.14;56.76;99382.47;5148855;27;20211;-64
2022/12/14 00:46:21;;;;;;;18.87;8.43;;;;;;;2.13;57.03;99386.03;5146405;27;20205;-64
2022/12/14 00:48:50;;;;;;;15.90;7.27;;;;;;;2.00;57.60;99395.78;5152163;27;20284;-64
2022/12/14 00:51:18;;;;;;;22.77;9.33;;;;;;;1.92;58.08;99388.56;5150484;27;20231;-64
2022/12/14 00:53:46;;;;;;;21.50;8.87;;;;;;;1.86;57.73;99389.00;5142956;27;20209;-64
2022/12/14 00:56:14;;;;;;;19.90;8.30;;;;;;;1.76;57.92;99383.66;5147738;27;20664;-64
2022/12/14 00:58:41;;;;;;;15.27;8.07;;;;;;;1.76;57.95;99390.69;5142512;27;20203;-64
2022/12/14 01:01:12;;;;;;;17.70;8.10;;;;;;;1.84;58.13;99378.69;5146374;27;20622;-64
2022/12/14 01:03:40;;;;;;;17.47;7.63;;;;;;;1.97;57.97;99386.41;5147512;27;20224;-64
2022/12/14 01:06:15;;;;;;;13.60;6.90;;;;;;;2.13;57.34;99365.94;5145622;27;20292;-64
2022/12/14 01:08:43;;;;;;;16.67;7.83;;;;;;;2.19;56.83;99369.88;5138495;27;20686;-64
2022/12/14 01:11:11;;;;;;;18.63;8.03;;;;;;;2.14;57.05;99366.75;5134714;27;20278;-64
2022/12/14 01:13:40;;;;;;;16.87;7.80;;;;;;;2.15;56.90;99369.25;5138408;27;20204;-63
2022/12/14 01:16:10;;;;;;;17.03;7.30;;;;;;;2.14;56.80;99358.91;5147665;27;20584;-63
2022/12/14 01:18:39;;;;;;;17.37;7.93;;;;;;;2.20;56.79;99359.25;5143353;27;20216;-63
2022/12/14 01:21:12;;;;;;;16.20;7.27;;;;;;;2.14;56.96;99361.53;5140459;27;20213;-63
2022/12/14 01:23:42;;;;;;;16.73;7.23;;;;;;;2.13;56.98;99368.56;5143576;27;20204;-63
2022/12/14 01:26:11;;;;;;;12.57;6.60;;;;;;;2.04;57.44;99360.59;5136591;27;20662;-63
2022/12/14 01:28:39;;;;;;;17.43;7.10;;;;;;;2.01;57.57;99353.00;5143508;27;20252;-63
2022/12/14 01:31:09;;;;;;;11.87;5.93;;;;;;;1.95;57.39;99350.88;5146060;27;20604;-63
2022/12/14 01:33:37;;;;;;;13.53;6.80;;;;;;;2.09;57.44;99342.78;5143106;27;20234;-64
2022/12/14 01:36:07;;;;;;;15.70;6.40;;;;;;;2.15;56.86;99347.50;5135788;27;20202;-63
2022/12/14 01:38:35;;;;;;;14.20;6.47;;;;;;;2.08;57.12;99347.19;5140044;27;20228;-63
2022/12/14 01:41:05;;;;;;;15.37;6.83;;;;;;;2.14;56.99;99358.91;5142495;27;20197;-64
2022/12/14 01:43:47;;;;;;;17.07;7.53;;;;;;;2.03;57.07;99356.31;5142502;27;20622;-64
2022/12/14 01:46:21;;;;;;;15.37;6.13;;;;;;;1.96;57.50;99352.53;5143664;27;20762;-64
2022/12/14 01:48:52;;;;;;;16.53;7.20;;;;;;;2.04;57.41;99355.38;5138537;27;20269;-64
2022/12/14 01:51:19;;;;;;;14.60;7.20;;;;;;;2.08;56.94;99348.97;5141406;27;20205;-63
2022/12/14 01:53:48;;;;;;;16.67;6.70;;;;;;;2.13;56.63;99346.78;5147707;27;20209;-63
2022/12/14 01:56:17;;;;;;;10.50;5.67;;;;;;;2.05;57.26;99346.56;5145233;27;20204;-63
2022/12/14 01:58:45;;;;;;;12.47;6.30;;;;;;;1.99;57.46;99337.44;5145350;27;20199;-63
2022/12/14 02:01:15;;;;;;;15.20;6.67;;;;;;;2.03;57.42;99338.00;5140065;27;20204;-63
2022/12/14 02:03:46;;;;;;;14.33;6.77;;;;;;;1.91;57.51;99334.59;5141318;27;20209;-63
2022/12/14 02:06:18;;;;;;;15.70;6.70;;;;;;;1.96;57.65;99329.00;5142318;27;20200;-63
2022/12/14 02:08:50;;;;;;;14.30;6.73;;;;;;;2.00;57.19;99327.81;5137963;27;20209;-63
2022/12/14 02:11:29;;;;;;;16.80;7.43;;;;;;;2.06;57.22;99322.09;5144808;27;20578;-63
2022/12/14 02:13:57;;;;;;;12.87;6.27;;;;;;;2.15;57.12;99316.13;5145127;27;20340;-64
2022/12/14 02:16:27;;;;;;;13.60;6.90;;;;;;;2.20;56.83;99320.03;5143800;27;20246;-63
2022/12/14 02:18:55;;;;;;;13.10;6.50;;;;;;;2.05;57.07;99320.44;5147534;27;20535;-63
2022/12/14 02:21:30;;;;;;;18.83;7.40;;;;;;;2.02;57.11;99315.47;5145206;27;20226;-63
2022/12/14 02:24:19;;;;;;;14.83;6.83;;;;;;;2.18;56.68;99321.13;5139758;27;20216;-63
2022/12/14 02:27:01;;;;;;;16.70;6.43;;;;;;;2.12;56.79;99316.38;5145934;27;20209;-63
2022/12/14 02:29:59;;;;;;;12.30;6.37;;;;;;;1.86;57.56;99308.81;5138319;27;20285;-63
2022/12/14 02:32:45;;;;;;;12.27;6.07;;;;;;;1.83;57.81;99316.91;5145031;27;20844;-63
2022/12/14 02:35:21;;;;;;;13.30;6.23;;;;;;;1.93;57.49;99308.34;5143759;27;20646;-63
2022/12/14 02:37:59;;;;;;;15.43;7.17;;;;;;;1.92;57.55;99314.53;5153099;27;20304;-63
2022/12/14 02:40:33;;;;;;;12.40;6.07;;;;;;;1.85;57.72;99314.16;5142528;27;20204;-63
2022/12/14 02:43:10;;;;;;;16.43;6.60;;;;;;;1.83;58.08;99303.84;5140727;27;20207;-63
2022/12/14 02:45:44;;;;;;;14.80;6.07;;;;;;;1.75;58.19;99305.41;5140334;27;20219;-63
2022/12/14 02:48:18;;;;;;;12.97;6.30;;;;;;;1.65;58.27;99300.06;5142027;27;20695;-63
2022/12/14 02:50:54;;;;;;;14.20;5.30;;;;;;;1.65;58.53;99292.22;5141750;27;20694;-63
2022/12/14 02:53:29;;;;;;;12.33;5.80;;;;;;;1.91;58.23;99279.72;5147513;27;20235;-63
2022/12/14 02:56:03;;;;;;;14.00;6.27;;;;;;;1.82;57.94;99283.88;5148764;27;20285;-63
2022/12/14 02:58:36;;;;;;;12.87;6.20;;;;;;;1.77;58.21;99286.00;5136160;27;20193;-63
2022/12/14 03:01:10;;;;;;;13.17;6.37;;;;;;;1.85;57.95;99273.16;5145076;27;20245;-63
2022/12/14 03:03:39;;;;;;;13.33;6.30;;;;;;;2.00;57.29;99265.06;5138513;27;20206;-63
2022/12/14 03:06:13;;;;;;;11.73;5.73;;;;;;;2.21;57.01;99263.31;5144957;27;20762;-63
2022/12/14 03:08:44;;;;;;;14.73;6.53;;;;;;;2.12;56.72;99271.91;5143576;27;20264;-63
2022/12/14 03:11:16;;;;;;;15.27;6.60;;;;;;;1.98;56.88;99272.19;5147283;27;20232;-64
2022/12/14 03:13:50;;;;;;;15.63;6.83;;;;;;;2.02;56.98;99271.00;5146596;27;20201;-63
2022/12/14 03:16:24;;;;;;;12.83;6.33;;;;;;;2.04;56.88;99263.84;5143251;27;20295;-63
2022/12/14 03:18:56;;;;;;;15.93;6.77;;;;;;;2.24;56.59;99263.91;5141173;27;20195;-64
2022/12/14 03:21:28;;;;;;;10.80;5.50;;;;;;;2.31;56.07;99271.25;5138153;27;20205;-63
2022/12/14 03:23:57;;;;;;;15.27;6.37;;;;;;;2.07;56.63;99266.22;5149573;27;20296;-63
2022/12/14 03:26:28;;;;;;;12.83;5.83;;;;;;;1.95;57.08;99264.59;5141387;27;20564;-64
2022/12/14 03:29:00;;;;;;;14.53;5.93;;;;;;;1.96;57.29;99253.19;5146876;27;20696;-63
2022/12/14 03:31:35;;;;;;;15.97;6.23;;;;;;;1.91;57.46;99261.41;5138856;27;21165;-63
2022/12/14 03:34:07;;;;;;;13.40;6.27;;;;;;;1.89;57.12;99245.84;5146088;27;20215;-63
2022/12/14 03:36:43;;;;;;;15.27;6.40;;;;;;;1.75;57.42;99242.69;5141562;27;20212;-63
2022/12/14 03:39:17;;;;;;;11.47;6.17;;;;;;;1.69;57.53;99245.75;5147052;27;20928;-66
2022/12/14 03:41:54;;;;;;;15.97;5.87;;;;;;;1.66;57.93;99256.47;5147837;27;20211;-64
2022/12/14 03:44:32;;;;;;;15.23;6.83;;;;;;;1.67;58.43;99238.03;5138526;27;20202;-63
2022/12/14 03:47:10;;;;;;;13.87;5.80;;;;;;;1.82;58.15;99236.84;5139565;27;20227;-63
2022/12/14 03:49:51;;;;;;;14.40;6.43;;;;;;;2.00;57.51;99236.31;5145300;27;20227;-63
2022/12/14 03:52:26;;;;;;;11.40;5.97;;;;;;;2.01;57.22;99232.75;5138792;27;20204;-63
2022/12/14 03:55:06;;;;;;;15.37;6.43;;;;;;;2.12;57.09;99232.69;5140231;27;20269;-63
2022/12/14 03:57:46;;;;;;;12.57;6.30;;;;;;;2.24;56.48;99244.78;5136720;27;20250;-64
2022/12/14 04:00:18;;;;;;;15.27;6.53;;;;;;;2.09;56.88;99236.41;5146051;27;20217;-64
2022/12/14 04:02:54;;;;;;;12.33;6.43;;;;;;;2.06;57.24;99228.78;5141362;27;20208;-63
2022/12/14 04:05:28;;;;;;;16.43;6.57;;;;;;;1.96;57.57;99222.63;5145185;27;20245;-63
2022/12/14 04:08:02;;;;;;;14.67;6.77;;;;;;;1.91;57.71;99216.13;5138817;27;20602;-63
2022/12/14 04:19:19;;;;;;;17.00;7.50;;;;;;;1.97;57.61;99197.34;5142260;27;20653;-63
2022/12/14 04:21:53;;;;;;;14.97;7.10;;;;;;;1.83;58.05;99195.84;5141304;27;20308;-64
2022/12/14 04:27:25;;;;;;;16.13;7.03;;;;;;;1.88;58.24;99186.66;5141173;27;20197;-64
2022/12/14 04:29:56;;;;;;;17.93;8.20;;;;;;;1.85;58.40;99189.53;5146294;27;20230;-64
2022/12/14 04:32:30;;;;;;;15.33;7.73;;;;;;;1.83;58.47;99195.84;5143516;27;20216;-64
2022/12/14 04:35:06;;;;;;;15.50;7.80;;;;;;;1.80;58.54;99203.94;5140631;27;20208;-64
2022/12/14 04:37:37;;;;;;;17.00;7.43;;;;;;;1.78;58.85;99222.34;5143337;27;20197;-63
2022/12/14 04:40:09;;;;;;;16.83;7.23;;;;;;;1.78;59.06;99218.91;5142748;27;20201;-64
2022/12/14 04:42:46;;;;;;;14.50;7.20;;;;;;;1.79;58.90;99213.53;5145518;27;20208;-65
2022/12/14 04:45:19;;;;;;;14.63;7.27;;;;;;;1.81;59.01;99211.66;5145121;27;20217;-62
2022/12/14 04:47:55;;;;;;;16.90;6.97;;;;;;;1.87;58.93;99208.53;5139744;27;20202;-65
2022/12/14 04:50:30;;;;;;;13.90;7.27;;;;;;;1.93;59.09;99209.84;5144348;27;20780;-65
2022/12/14 04:53:03;;;;;;;17.20;7.60;;;;;;;1.97;58.95;99213.84;5149125;27;20207;-63
2022/12/14 04:55:36;;;;;;;18.50;7.60;;;;;;;2.00;58.94;99211.00;5142061;27;20579;-63
2022/12/14 04:58:10;;;;;;;19.47;8.37;;;;;;;2.00;58.66;99186.63;5148425;27;20219;-63
2022/12/14 05:00:52;;;;;;;17.70;8.03;;;;;;;2.15;58.20;99190.59;5144594;27;20202;-63
2022/12/14 05:03:25;;;;;;;17.93;7.87;;;;;;;2.29;57.77;99192.91;5142104;27;20216;-64
2022/12/14 05:06:07;;;;;;;15.13;6.70;;;;;;;2.20;58.33;99180.59;5143091;27;20296;-64
2022/12/14 05:08:56;;;;;;;16.23;7.87;;;;;;;2.16;58.46;99187.88;5148267;27;20196;-64
2022/12/14 05:11:29;;;;;;;15.17;7.17;;;;;;;2.25;58.05;99183.66;5153189;27;20584;-64
2022/12/14 05:14:22;;;;;;;15.67;7.40;;;;;;;2.32;57.85;99197.06;5143820;27;20204;-65
2022/12/14 05:16:50;;;;;;;18.60;8.10;;;;;;;2.28;58.25;99196.50;5144667;27;20265;-64
2022/12/14 05:19:18;;;;;;;18.80;8.60;;;;;;;2.25;58.36;99191.50;5148537;27;20209;-63
2022/12/14 05:21:47;;;;;;;17.67;8.83;;;;;;;2.21;58.83;99190.09;5140608;27;20215;-64
2022/12/14 05:24:16;;;;;;;15.37;7.37;;;;;;;2.15;59.47;99196.66;5141547;27;20201;-64
2022/12/14 05:26:44;;;;;;;18.37;8.27;;;;;;;2.11;59.94;99199.66;5144325;27;20245;-63
2022/12/14 05:29:13;;;;;;;15.00;7.80;;;;;;;2.14;59.78;99197.63;5140830;27;20249;-63
2022/12/14 05:31:41;;;;;;;15.67;7.33;;;;;;;2.15;59.99;99195.84;5146195;27;20826;-64
2022/12/14 05:34:15;;;;;;;16.53;7.60;;;;;;;2.08;60.54;99205.13;5145048;27;20368;-64
2022/12/14 05:36:43;;;;;;;22.03;7.97;;;;;;;2.05;60.98;99206.22;5143101;27;20236;-64
2022/12/14 05:39:12;;;;;;;17.60;7.70;;;;;;;2.02;61.46;99201.25;5142224;27;20197;-64
2022/12/14 05:41:40;;;;;;;18.03;9.00;;;;;;;1.98;61.80;99204.22;5152172;27;20295;-64
2022/12/14 05:44:08;;;;;;;20.63;10.23;;;;;;;1.90;62.62;99186.53;5142722;27;20213;-64
2022/12/14 05:46:37;;;;;;;20.60;9.10;;;;;;;1.94;63.07;99187.94;5150318;27;20258;-64
2022/12/14 05:49:05;;;;;;;16.10;8.17;;;;;;;1.97;63.35;99176.41;5142520;27;20201;-64
2022/12/14 05:51:33;;;;;;;24.83;9.83;;;;;;;1.87;64.15;99182.38;5147382;27;20210;-64
2022/12/14 05:54:04;;;;;;;17.57;9.33;;;;;;;1.89;64.34;99185.72;5140880;27;20726;-64
2022/12/14 05:56:34;;;;;;;19.93;9.03;;;;;;;1.88;64.68;99173.59;5143413;27;20987;-63
2022/12/14 05:59:02;;;;;;;19.17;9.57;;;;;;;1.87;65.20;99165.88;5141618;27;20573;-63
2022/12/14 06:01:31;;;;;;;19.03;8.83;;;;;;;1.94;65.13;99163.59;5143984;27;20565;-63
2022/12/14 06:03:59;;;;;;;19.53;9.20;;;;;;;1.93;65.04;99165.41;5134157;27;20266;-64
2022/12/14 06:06:27;;;;;;;21.87;9.70;;;;;;;1.90;65.39;99152.56;5140407;27;20217;-65
2022/12/14 06:08:55;;;;;;;18.40;8.53;;;;;;;1.99;65.14;99128.28;5133336;27;20304;-65
2022/12/14 06:11:23;;;;;;;18.63;9.73;;;;;;;1.95;65.52;99137.31;5143047;27;20224;-66
2022/12/14 06:13:53;;;;;;;17.30;9.10;;;;;;;1.92;65.91;99131.53;5137060;27;20198;-65
2022/12/14 06:16:23;;;;;;;22.60;9.70;;;;;;;1.88;66.52;99126.53;5147386;27;20208;-64
2022/12/14 06:18:52;;;;;;;17.70;9.20;;;;;;;1.94;66.47;99124.38;5142587;27;20603;-64
2022/12/14 06:21:23;;;;;;;18.03;8.93;;;;;;;1.96;66.69;99125.91;5142718;27;20292;-65
2022/12/14 06:23:51;;;;;;;20.03;10.00;;;;;;;1.92;67.08;99123.69;5148248;27;20224;-64
2022/12/14 06:26:19;;;;;;;21.80;10.67;;;;;;;1.94;66.94;99119.97;5143471;27;20262;-65
2022/12/14 06:28:47;;;;;;;22.87;9.63;;;;;;;2.04;66.37;99120.06;5140072;27;20245;-64
2022/12/14 06:31:18;;;;;;;22.07;9.87;;;;;;;1.98;66.75;99107.50;5142437;27;20213;-64
2022/12/14 06:33:49;;;;;;;17.60;9.33;;;;;;;2.01;66.67;99102.84;5138020;27;20209;-64
2022/12/14 06:36:21;;;;;;;18.67;9.70;;;;;;;2.09;66.73;99091.75;5146428;27;20223;-64
2022/12/14 06:38:50;;;;;;;22.10;10.17;;;;;;;2.09;66.55;99081.28;5144541;27;20221;-64
2022/12/14 06:41:22;;;;;;;19.83;8.70;;;;;;;1.96;66.89;99078.84;5144296;27;20221;-65
2022/12/14 06:43:51;;;;;;;19.73;9.57;;;;;;;1.98;66.73;99074.34;5145061;27;20202;-64
2022/12/14 06:46:30;;;;;;;21.23;9.90;;;;;;;2.00;66.67;99076.84;5145561;27;20225;-64
2022/12/14 06:48:59;;;;;;;20.00;9.97;;;;;;;2.08;66.30;99069.16;5150141;27;20208;-63
2022/12/14 06:51:28;;;;;;;19.57;9.87;;;;;;;2.13;65.97;99053.91;5147981;27;20229;-64
2022/12/14 06:53:57;;;;;;;27.27;12.70;;;;;;;2.13;65.95;99062.59;5144313;27;20203;-63
2022/12/14 06:56:27;;;;;;;29.23;13.83;;;;;;;2.02;66.67;99069.69;5142430;27;20205;-63
2022/12/14 06:58:56;;;;;;;24.00;11.33;;;;;;;2.14;66.31;99053.78;5138856;27;20247;-64
2022/12/14 07:01:27;;;;;;;22.60;11.70;;;;;;;2.17;65.94;99050.09;5144156;27;20660;-65
2022/12/14 07:04:02;;;;;;;22.40;12.73;;;;;;;2.21;65.78;99069.78;5144010;27;20213;-65
2022/12/14 07:06:34;;;;;;;23.00;10.83;;;;;;;2.16;66.03;99061.50;5148635;27;20205;-65
2022/12/14 07:09:02;;;;;;;25.23;10.80;;;;;;;2.10;66.79;99075.94;5145412;27;20240;-64
2022/12/14 07:11:31;;;;;;;20.17;10.70;;;;;;;2.14;66.94;99081.72;5134353;27;20333;-64
2022/12/14 07:14:04;;;;;;;19.17;10.43;;;;;;;2.20;66.58;99070.75;5144404;27;20204;-66
2022/12/14 07:16:35;;;;;;;27.00;11.57;;;;;;;2.21;66.26;99064.56;5145331;27;20752;-64
2022/12/14 07:19:03;;;;;;;19.60;10.40;;;;;;;2.19;66.46;99056.88;5141176;27;20233;-65
2022/12/14 07:21:34;;;;;;;24.47;11.90;;;;;;;2.26;66.32;99071.06;5144004;27;20196;-64
2022/12/14 07:24:07;;;;;;;25.47;12.33;;;;;;;2.21;66.56;99065.38;5141875;27;20627;-64
2022/12/14 07:26:36;;;;;;;20.93;12.20;;;;;;;2.20;66.83;99057.66;5143452;27;20200;-66
2022/12/14 07:29:08;;;;;;;21.30;11.03;;;;;;;2.28;66.62;99060.50;5139732;27;20326;-65
2022/12/14 07:31:37;;;;;;;23.33;11.10;;;;;;;2.30;66.41;99048.09;5139924;27;20217;-65
2022/12/14 07:34:05;;;;;;;23.10;12.90;;;;;;;2.27;66.59;99043.13;5141626;27;20246;-64
2022/12/14 07:36:33;;;;;;;24.53;12.00;;;;;;;2.18;66.94;99049.16;5143247;27;20202;-64
2022/12/14 07:39:01;;;;;;;22.03;11.00;;;;;;;2.08;67.58;99058.72;5142727;27;20296;-64
2022/12/14 07:41:31;;;;;;;25.57;12.43;;;;;;;2.12;67.45;99066.16;5140451;27;20197;-66
2022/12/14 07:44:00;;;;;;;24.03;12.40;;;;;;;2.27;66.83;99069.28;5143655;27;20244;-65
2022/12/14 07:46:30;;;;;;;19.80;10.83;;;;;;;2.17;67.39;99078.88;5149451;27;20231;-65
2022/12/14 07:49:01;;;;;;;22.53;10.60;;;;;;;2.07;67.61;99088.44;5144218;27;20205;-65
2022/12/14 07:51:31;;;;;;;20.03;10.67;;;;;;;2.04;68.40;99086.06;5139364;27;20221;-65
2022/12/14 07:54:00;;;;;;;23.00;10.93;;;;;;;2.04;68.05;99078.22;5145212;27;20854;-64
2022/12/14 07:56:30;;;;;;;23.23;11.67;;;;;;;2.04;67.82;99075.59;5141624;27;20209;-65
2022/12/14 07:59:04;;;;;;;21.30;10.90;;;;;;;2.05;67.72;99070.25;5143487;27;20255;-65
2022/12/14 08:01:34;;;;;;;20.80;10.83;;;;;;;2.08;67.86;99071.78;5149458;27;20229;-62
2022/12/14 08:04:09;;;;;;;23.50;11.17;;;;;;;2.16;67.82;99045.81;5146680;27;20201;-60
2022/12/14 08:06:38;;;;;;;23.33;10.80;;;;;;;2.06;68.30;99051.00;5149691;27;20203;-62
2022/12/14 08:09:08;;;;;;;20.37;10.70;;;;;;;2.06;68.58;99056.22;5145703;27;20211;-59
2022/12/14 08:11:37;;;;;;;22.40;11.40;;;;;;;2.15;68.33;99060.69;5144573;27;20260;-61
2022/12/14 08:14:07;;;;;;;22.90;10.53;;;;;;;2.18;68.38;99062.22;5138097;27;20216;-61
2022/12/14 08:16:34;;;;;;;22.17;11.03;;;;;;;2.13;68.30;99064.38;5132517;27;22158;-61
2022/12/14 08:19:03;;;;;;;21.53;10.80;;;;;;;2.16;68.13;99066.75;5143038;27;20209;-61
2022/12/14 08:21:32;;;;;;;25.83;11.00;;;;;;;2.07;68.24;99072.75;5150847;27;20209;-59
2022/12/14 08:24:00;;;;;;;20.93;11.13;;;;;;;2.08;68.49;99072.63;5146148;27;20222;-62
2022/12/14 08:26:28;;;;;;;24.17;10.40;;;;;;;2.28;67.86;99075.34;5140149;27;20758;-62
2022/12/14 08:29:03;;;;;;;20.73;10.37;;;;;;;2.24;67.76;99077.38;5146329;27;20657;-62
2022/12/14 08:31:31;;;;;;;21.90;10.73;;;;;;;2.19;68.00;99074.34;5146625;27;20256;-60
2022/12/14 08:33:59;;;;;;;19.37;10.43;;;;;;;2.11;68.23;99063.69;5146288;27;20235;-61
2022/12/14 08:36:29;;;;;;;21.83;11.10;;;;;;;2.31;67.78;99068.06;5150244;27;20210;-62
2022/12/14 08:39:00;;;;;;;19.00;10.13;;;;;;;2.21;67.77;99069.78;5153425;27;20986;-60
2022/12/14 08:41:29;;;;;;;23.30;11.57;;;;;;;2.15;68.21;99083.38;5152914;27;20224;-60
2022/12/14 08:43:58;;;;;;;22.13;11.20;;;;;;;2.01;68.62;99081.94;5149246;27;20200;-62
2022/12/14 08:46:28;;;;;;;21.60;10.30;;;;;;;2.01;69.11;99081.94;5148778;27;20213;-63
2022/12/14 08:48:57;;;;;;;21.37;10.23;;;;;;;2.17;68.51;99065.78;5146444;27;20211;-62
2022/12/14 08:51:27;;;;;;;29.40;12.27;;;;;;;2.24;67.92;99065.13;5148890;27;20223;-63
2022/12/14 08:53:55;;;;;;;26.50;13.03;;;;;;;2.35;67.32;99064.25;5151765;27;20268;-63
2022/12/14 08:56:27;;;;;;;24.17;12.00;;;;;;;2.37;67.85;99072.78;5144832;27;20792;-62
2022/12/14 08:58:56;;;;;;;23.87;11.87;;;;;;;2.44;67.57;99089.63;5146656;27;20582;-63
2022/12/14 09:01:26;;;;;;;20.57;11.53;;;;;;;2.33;67.87;99088.84;5144679;27;20197;-62
2022/12/14 09:04:03;;;;;;;30.30;13.83;;;;;;;2.32;68.16;99082.78;5147430;27;20196;-63
2022/12/14 09:06:34;;;;;;;21.63;12.30;;;;;;;2.29;68.50;99067.34;5144271;27;20375;-62
2022/12/14 09:09:01;;;;;;;25.30;12.73;;;;;;;2.43;68.03;99064.41;5147744;27;20208;-63
2022/12/14 09:11:31;;;;;;;25.13;12.53;;;;;;;2.53;67.62;99070.53;5142664;27;20350;-63
2022/12/14 09:13:59;;;;;;;22.67;12.13;;;;;;;2.51;67.89;99067.19;5145838;27;20642;-65
2022/12/14 09:16:27;;;;;;;26.00;12.50;;;;;;;2.59;67.57;99067.38;5145764;27;20296;-61
2022/12/14 09:18:57;;;;;;;29.90;13.83;;;;;;;2.46;68.22;99069.34;5146934;27;20236;-62
2022/12/14 09:21:25;;;;;;;24.63;12.37;;;;;;;2.38;68.57;99061.34;5151558;27;20216;-63
2022/12/14 09:23:53;;;;;;;27.20;13.50;;;;;;;2.28;68.94;99055.25;5146819;27;20200;-63
2022/12/14 09:26:26;;;;;;;24.53;12.77;;;;;;;2.28;69.57;99059.66;5151995;27;20204;-63
2022/12/14 09:28:57;;;;;;;26.10;13.27;;;;;;;2.49;69.00;99063.88;5144882;27;20245;-63
2022/12/14 09:31:27;;;;;;;25.20;13.93;;;;;;;2.59;68.44;99058.69;5145433;27;20223;-62
2022/12/14 09:33:55;;;;;;;25.70;13.00;;;;;;;2.64;67.78;99054.69;5141653;27;20215;-62
2022/12/14 09:36:26;;;;;;;26.70;12.40;;;;;;;2.60;67.84;99042.84;5145730;27;20217;-63
2022/12/14 09:38:55;;;;;;;26.27;13.17;;;;;;;2.67;67.33;99047.56;5151118;27;20291;-63
2022/12/14 09:41:36;;;;;;;24.93;12.87;;;;;;;2.74;67.36;99040.81;5154352;27;20235;-62
2022/12/14 09:44:15;;;;;;;24.40;13.13;;;;;;;2.74;67.33;99048.69;5146313;27;20350;-62
2022/12/14 09:46:56;;;;;;;30.67;14.07;;;;;;;2.73;67.22;99049.66;5150247;27;21957;-62
2022/12/14 09:49:30;;;;;;;29.83;13.23;;;;;;;2.74;67.69;99059.16;5149116;27;20286;-63
2022/12/14 09:52:01;;;;;;;32.93;14.40;;;;;;;2.80;67.44;99056.84;5151070;27;20220;-64
2022/12/14 09:54:31;;;;;;;26.27;13.77;;;;;;;2.91;67.22;99058.50;5161151;27;20202;-62
2022/12/14 09:57:04;;;;;;;26.77;13.77;;;;;;;2.90;66.96;99057.69;5151819;27;20288;-62
2022/12/14 09:59:34;;;;;;;25.83;12.97;;;;;;;2.93;66.74;99051.34;5154309;27;20203;-62
2022/12/14 10:02:19;;;;;;;25.30;13.33;;;;;;;2.94;66.70;99047.78;5152959;27;20205;-62
2022/12/14 10:05:20;;;;;;;27.80;13.63;;;;;;;2.83;67.12;99050.50;5149662;27;20245;-62
2022/12/14 10:07:56;;;;;;;26.70;14.00;;;;;;;2.85;67.16;99051.19;5149808;27;20220;-62
2022/12/14 10:10:28;;;;;;;30.23;15.20;;;;;;;2.75;68.09;99043.31;5150725;27;20205;-62
2022/12/14 10:13:06;;;;;;;28.73;14.67;;;;;;;2.96;67.38;99057.16;5152315;27;20288;-63
2022/12/14 10:15:43;;;;;;;28.20;13.93;;;;;;;3.02;66.79;99045.31;5147047;27;20685;-62
2022/12/14 10:18:26;;;;;;;32.77;15.03;;;;;;;3.06;66.75;99054.56;5151055;27;20680;-63
2022/12/14 10:21:15;;;;;;;28.83;13.93;;;;;;;2.96;66.59;99056.34;5150318;27;20216;-61
2022/12/14 10:23:52;;;;;;;33.90;14.90;;;;;;;2.94;66.72;99047.78;5144978;27;20635;-63
2022/12/14 10:26:25;;;;;;;30.20;14.90;;;;;;;2.95;67.03;99050.25;5150412;27;20192;-62
2022/12/14 10:28:59;;;;;;;28.23;14.50;;;;;;;3.06;66.75;99056.34;5148657;27;20243;-63
2022/12/14 10:31:35;;;;;;;30.40;14.30;;;;;;;3.11;66.47;99054.97;5147929;27;20224;-63
2022/12/14 10:34:16;;;;;;;28.97;14.20;;;;;;;3.12;66.04;99046.16;5148186;27;20668;-63
2022/12/14 10:36:52;;;;;;;32.57;13.77;;;;;;;3.21;65.51;99040.09;5152841;27;20198;-63
2022/12/14 10:39:35;;;;;;;30.00;13.40;;;;;;;3.24;64.99;99050.31;5151457;27;20235;-63
2022/12/14 10:42:15;;;;;;;31.07;15.07;;;;;;;3.10;65.35;99045.47;5156924;27;20263;-63
2022/12/14 10:44:54;;;;;;;31.30;15.23;;;;;;;3.14;65.33;99044.25;5147601;27;20200;-63
2022/12/14 10:47:47;;;;;;;26.97;14.10;;;;;;;3.09;65.75;99049.03;5148710;27;20212;-62
2022/12/14 10:50:24;;;;;;;31.50;15.10;;;;;;;3.05;65.91;99063.38;5152384;27;20207;-63
2022/12/14 10:52:54;;;;;;;30.60;15.30;;;;;;;2.96;66.61;99062.41;5150263;27;20550;-63
2022/12/14 10:55:39;;;;;;;28.40;14.30;;;;;;;2.88;66.71;99056.19;5158329;27;20234;-63
2022/12/14 10:58:09;;;;;;;24.07;13.93;;;;;;;2.93;66.61;99059.22;5152534;27;20856;-64
2022/12/14 11:00:39;;;;;;;26.30;14.13;;;;;;;2.86;66.87;99060.72;5154690;27;20218;-63
2022/12/14 11:03:16;;;;;;;26.23;13.67;;;;;;;2.77;67.16;99061.50;5152727;27;20210;-63
2022/12/14 11:05:53;;;;;;;33.07;14.00;;;;;;;2.86;66.83;99056.31;5147123;27;20202;-64
2022/12/14 11:08:42;;;;;;;32.83;14.97;;;;;;;2.92;66.35;99049.69;5150270;27;20207;-64
2022/12/14 11:11:17;;;;;;;28.93;14.40;;;;;;;2.85;66.47;99049.41;5145393;27;20225;-61
2022/12/14 11:13:54;;;;;;;26.23;13.23;;;;;;;2.75;66.83;99042.47;5141366;27;20216;-60
2022/12/14 11:16:33;;;;;;;27.57;14.50;;;;;;;2.78;67.05;99047.47;5147546;27;20210;-60
2022/12/14 11:19:14;;;;;;;28.67;14.17;;;;;;;2.87;66.54;99050.09;5142984;27;20571;-60
2022/12/14 11:21:43;;;;;;;26.57;13.40;;;;;;;2.86;65.95;99043.22;5139751;27;20584;-60
2022/12/14 11:24:22;;;;;;;29.57;14.33;;;;;;;2.81;66.50;99045.41;5138563;27;20201;-61
2022/12/14 11:26:53;;;;;;;24.07;13.03;;;;;;;2.70;66.98;99052.53;5149260;27;20196;-61
2022/12/14 11:29:28;;;;;;;29.43;13.93;;;;;;;2.69;67.22;99048.25;5145311;27;20239;-61
2022/12/14 11:31:56;;;;;;;31.83;14.20;;;;;;;2.81;66.93;99044.59;5140853;27;20203;-60
2022/12/14 11:34:31;;;;;;;31.30;14.27;;;;;;;2.91;66.88;99048.03;5139082;27;20311;-59
2022/12/14 11:37:12;;;;;;;28.40;13.87;;;;;;;2.90;66.65;99047.19;5143539;27;20216;-60
2022/12/14 11:39:42;;;;;;;29.67;14.37;;;;;;;2.94;66.17;99034.69;5142571;27;20232;-60
2022/12/14 11:42:16;;;;;;;27.37;13.40;;;;;;;2.95;65.58;99038.97;5141776;27;20213;-61
2022/12/14 11:44:45;;;;;;;26.90;13.70;;;;;;;2.88;66.44;99032.63;5148476;27;20195;-60
2022/12/14 11:47:15;;;;;;;28.50;13.27;;;;;;;2.98;66.05;99028.22;5144968;27;20205;-61
2022/12/14 11:49:46;;;;;;;26.90;13.63;;;;;;;2.89;66.35;99023.81;5140275;27;20214;-60
2022/12/14 11:52:17;;;;;;;24.57;13.73;;;;;;;2.90;66.69;99030.69;5140634;27;20216;-61
2022/12/14 11:54:46;;;;;;;28.47;13.93;;;;;;;3.00;66.29;99026.28;5153323;27;20284;-60
2022/12/14 11:57:24;;;;;;;27.57;13.80;;;;;;;2.95;66.62;99025.88;5152328;27;20237;-61
2022/12/14 11:59:56;;;;;;;25.70;13.43;;;;;;;2.95;66.74;99026.69;5146726;27;20209;-61
2022/12/14 12:02:28;;;;;;;27.53;14.13;;;;;;;2.97;66.75;99013.47;5150208;27;20299;-60
2022/12/14 12:05:07;;;;;;;28.47;14.07;;;;;;;2.97;67.10;99021.34;5147806;27;20651;-61